createdAt,value
2018-06-05T00:01:59.107Z,20.92
2018-06-05T00:06:51.997Z,20.87
2018-06-05T00:11:45.025Z,20.79
2018-06-05T00:16:37.925Z,20.73
2018-06-05T00:21:30.786Z,20.64
2018-06-05T00:26:23.714Z,20.59
2018-06-05T00:31:16.562Z,20.52
2018-06-05T00:36:09.442Z,20.40
2018-06-05T00:41:02.421Z,20.32
2018-06-05T00:45:55.463Z,20.24
2018-06-05T00:50:48.311Z,20.16
2018-06-05T00:55:41.253Z,20.12
2018-06-05T01:00:34.157Z,20.08
2018-06-05T01:05:27.093Z,19.97
2018-06-05T01:10:19.996Z,19.88
2018-06-05T01:15:12.826Z,19.80
2018-06-05T01:20:05.812Z,19.78
2018-06-05T01:24:58.648Z,19.80
2018-06-05T01:29:51.581Z,19.78
2018-06-05T01:34:44.630Z,19.73
2018-06-05T01:39:37.552Z,19.73
2018-06-05T01:44:30.453Z,19.69
2018-06-05T01:49:23.457Z,19.67
2018-06-05T01:54:16.441Z,19.63
2018-06-05T01:59:09.398Z,19.61
2018-06-05T02:04:02.224Z,19.58
2018-06-05T02:08:55.153Z,19.55
2018-06-05T02:13:48.048Z,19.50
2018-06-05T02:18:40.909Z,19.46
2018-06-05T02:23:33.796Z,19.41
2018-06-05T02:28:26.640Z,19.40
2018-06-05T02:33:19.573Z,19.40
2018-06-05T02:38:12.537Z,19.39
2018-06-05T02:43:05.535Z,19.37
2018-06-05T02:47:58.443Z,19.38
2018-06-05T02:52:51.294Z,19.40
2018-06-05T02:57:44.236Z,19.39
2018-06-05T03:02:37.098Z,19.38
2018-06-05T03:07:30.106Z,19.37
2018-06-05T03:12:23.004Z,19.36
2018-06-05T03:17:16.039Z,19.36
2018-06-05T03:22:08.875Z,19.36
2018-06-05T03:27:01.907Z,19.34
2018-06-05T03:31:54.748Z,19.33
2018-06-05T03:36:47.630Z,19.33
2018-06-05T03:41:40.529Z,19.33
2018-06-05T03:46:33.443Z,19.34
2018-06-05T03:51:26.319Z,19.34
2018-06-05T03:56:19.348Z,19.32
2018-06-05T04:01:12.321Z,19.29
2018-06-05T04:06:05.452Z,19.26
2018-06-05T04:10:58.454Z,19.22
2018-06-05T04:15:51.396Z,19.21
2018-06-05T04:20:44.214Z,19.23
2018-06-05T04:25:37.050Z,19.22
2018-06-05T04:30:30.033Z,19.22
2018-06-05T04:35:22.973Z,19.20
2018-06-05T04:40:15.965Z,19.18
2018-06-05T04:45:08.923Z,19.15
2018-06-05T04:50:01.813Z,19.09
2018-06-05T04:54:54.680Z,19.07
2018-06-05T04:59:47.658Z,19.03
2018-06-05T05:04:40.585Z,19.04
2018-06-05T05:09:33.457Z,19.00
2018-06-05T05:14:26.329Z,19.01
2018-06-05T05:19:19.169Z,19.02
2018-06-05T05:24:12.069Z,19.01
2018-06-05T05:29:04.963Z,19.03
2018-06-05T05:33:57.961Z,19.03
2018-06-05T05:38:50.904Z,19.01
2018-06-05T05:43:43.838Z,18.99
2018-06-05T05:48:36.850Z,19.01
2018-06-05T05:53:29.674Z,19.06
2018-06-05T05:58:22.684Z,19.08
2018-06-05T06:03:15.639Z,19.09
2018-06-05T06:08:08.528Z,19.07
2018-06-05T06:13:01.394Z,19.12
2018-06-05T06:17:54.209Z,19.15
2018-06-05T06:22:46.994Z,19.16
2018-06-05T06:27:40.068Z,19.19
2018-06-05T06:32:32.989Z,19.19
2018-06-05T06:37:25.930Z,19.15
2018-06-05T06:42:18.893Z,19.24
2018-06-05T06:47:11.864Z,19.30
2018-06-05T06:52:04.777Z,19.27
2018-06-05T06:56:57.646Z,19.21
2018-06-05T07:01:50.569Z,19.20
2018-06-05T07:06:43.443Z,19.17
2018-06-05T07:11:36.723Z,19.15
2018-06-05T07:16:29.605Z,19.07
2018-06-05T07:21:22.587Z,19.00
2018-06-05T07:26:15.536Z,19.06
2018-06-05T07:31:08.480Z,19.02
2018-06-05T07:36:01.765Z,19.01
2018-06-05T07:40:54.671Z,18.96
2018-06-05T07:45:47.641Z,18.97
2018-06-05T07:50:40.657Z,19.00
2018-06-05T07:55:33.737Z,19.05
2018-06-05T08:00:26.648Z,19.03
2018-06-05T08:05:19.515Z,19.09
2018-06-05T08:10:12.461Z,19.17
2018-06-05T08:15:06.590Z,19.24
2018-06-05T08:19:59.553Z,19.26
2018-06-05T08:24:52.517Z,19.31
2018-06-05T08:29:45.496Z,19.37
2018-06-05T08:34:38.464Z,19.36
2018-06-05T08:39:31.373Z,19.42
2018-06-05T08:44:24.318Z,19.48
2018-06-05T08:49:17.249Z,19.52
2018-06-05T08:55:13.798Z,19.53
2018-06-05T09:00:06.702Z,19.52
2018-06-05T09:04:59.774Z,19.61
2018-06-05T09:09:52.742Z,19.59
2018-06-05T09:14:45.713Z,19.60
2018-06-05T09:19:38.597Z,19.65
2018-06-05T09:24:31.506Z,19.71
2018-06-05T09:29:24.688Z,19.79
2018-06-05T09:34:17.731Z,19.88
2018-06-05T09:39:10.699Z,19.90
2018-06-05T09:44:04.198Z,19.78
2018-06-05T09:48:57.157Z,19.78
2018-06-05T09:53:50.079Z,19.83
2018-06-05T09:58:42.892Z,19.82
2018-06-05T10:03:35.816Z,19.89
2018-06-05T10:08:28.834Z,19.96
2018-06-05T10:13:21.814Z,20.01
2018-06-05T10:18:14.843Z,20.02
2018-06-05T10:23:07.926Z,19.95
2018-06-05T10:28:00.786Z,20.00
2018-06-05T10:32:53.727Z,20.04
2018-06-05T10:37:46.694Z,20.10
2018-06-05T10:42:39.676Z,20.15
2018-06-05T10:47:32.567Z,20.20
2018-06-05T10:52:25.441Z,20.25
2018-06-05T10:57:18.353Z,20.28
2018-06-05T11:02:11.360Z,20.36
2018-06-05T11:07:04.471Z,20.39
2018-06-05T11:11:57.359Z,20.49
2018-06-05T11:16:50.440Z,20.65
2018-06-05T11:21:43.356Z,20.75
2018-06-05T11:26:36.266Z,21.08
2018-06-05T11:31:29.137Z,21.48
2018-06-05T11:36:22.023Z,21.77
2018-06-05T11:41:14.955Z,21.91
2018-06-05T11:46:07.866Z,21.97
2018-06-05T11:51:00.823Z,22.07
2018-06-05T11:55:53.757Z,22.35
2018-06-05T12:00:46.721Z,22.79
2018-06-05T12:05:39.589Z,23.02
2018-06-05T12:10:32.512Z,22.98
2018-06-05T12:15:25.408Z,22.95
2018-06-05T12:20:18.329Z,23.00
2018-06-05T12:25:11.203Z,23.05
2018-06-05T12:30:04.540Z,23.18
2018-06-05T12:34:57.446Z,23.45
2018-06-05T12:39:50.332Z,23.79
2018-06-05T12:44:44.089Z,23.91
2018-06-05T12:49:36.999Z,23.83
2018-06-05T12:54:29.849Z,23.92
2018-06-05T12:59:22.740Z,24.18
2018-06-05T13:04:15.784Z,24.34
2018-06-05T13:09:08.717Z,24.61
2018-06-05T13:14:01.630Z,24.73
2018-06-05T13:18:54.529Z,24.79
2018-06-05T13:23:47.573Z,24.86
2018-06-05T13:28:43.061Z,25.04
2018-06-05T13:33:36.131Z,25.18
2018-06-05T13:38:29.142Z,25.15
2018-06-05T13:43:22.017Z,25.13
2018-06-05T13:48:14.890Z,25.20
2018-06-05T13:53:07.952Z,25.22
2018-06-05T13:58:01.149Z,25.19
2018-06-05T14:02:54.038Z,25.15
2018-06-05T14:07:51.925Z,25.09
2018-06-05T14:12:44.864Z,25.05
2018-06-05T14:17:37.795Z,25.04
2018-06-05T14:22:30.662Z,25.12
2018-06-05T14:27:23.722Z,25.17
2018-06-05T14:32:16.784Z,25.23
2018-06-05T14:37:09.679Z,25.23
2018-06-05T14:42:02.890Z,25.15
2018-06-05T14:46:55.962Z,25.10
2018-06-05T14:51:48.927Z,25.24
2018-06-05T14:56:41.867Z,25.27
2018-06-05T15:01:34.745Z,25.32
2018-06-05T15:06:27.634Z,25.27
2018-06-05T15:11:20.472Z,25.31
2018-06-05T15:16:13.460Z,25.39
2018-06-05T15:21:06.453Z,25.39
2018-06-05T15:25:59.448Z,25.36
2018-06-05T15:30:52.397Z,25.43
2018-06-05T15:35:45.232Z,25.51
2018-06-05T15:40:38.117Z,25.52
2018-06-05T15:45:31.094Z,25.45
2018-06-05T15:50:24.030Z,25.43
2018-06-05T15:55:16.945Z,25.37
2018-06-05T16:00:09.826Z,25.34
2018-06-05T16:05:02.726Z,25.38
2018-06-05T16:09:55.541Z,25.40
2018-06-05T16:14:48.473Z,25.41
2018-06-05T16:19:41.340Z,25.53
2018-06-05T16:24:34.263Z,25.64
2018-06-05T16:29:27.079Z,25.72
2018-06-05T16:34:19.941Z,25.74
2018-06-05T16:39:12.965Z,25.75
2018-06-05T16:44:05.790Z,25.76
2018-06-05T16:48:58.705Z,25.74
2018-06-05T16:53:51.597Z,25.68
2018-06-05T16:58:44.421Z,25.60
2018-06-05T17:03:37.421Z,25.55
2018-06-05T17:08:30.812Z,25.51
2018-06-05T17:13:23.641Z,25.46
2018-06-05T17:18:16.537Z,25.44
2018-06-05T17:23:09.483Z,25.42
2018-06-05T17:28:02.417Z,25.38
2018-06-05T17:32:55.361Z,25.37
2018-06-05T17:37:48.217Z,25.31
2018-06-05T17:42:41.142Z,25.26
2018-06-05T17:47:34.064Z,25.23
2018-06-05T17:52:26.878Z,25.19
2018-06-05T17:57:19.676Z,25.08
2018-06-05T18:02:12.610Z,24.98
2018-06-05T18:07:05.494Z,24.90
2018-06-05T18:11:58.345Z,24.84
2018-06-05T18:16:51.256Z,24.78
2018-06-05T18:21:44.071Z,24.63
2018-06-05T18:26:37.023Z,24.53
2018-06-05T18:31:29.903Z,24.43
2018-06-05T18:36:22.790Z,24.34
2018-06-05T18:41:15.748Z,24.26
2018-06-05T18:46:08.682Z,24.20
2018-06-05T18:51:05.156Z,24.18
2018-06-05T18:55:58.130Z,24.14
2018-06-05T19:00:51.132Z,24.07
2018-06-05T19:05:44.002Z,23.96
2018-06-05T19:10:36.966Z,23.84
2018-06-05T19:15:29.952Z,23.72
2018-06-05T19:20:22.938Z,23.55
2018-06-05T19:25:15.873Z,23.41
2018-06-05T19:30:08.745Z,23.31
2018-06-05T19:35:01.651Z,23.24
2018-06-05T19:39:54.541Z,23.13
2018-06-05T19:44:47.340Z,22.87
2018-06-05T19:49:40.171Z,22.63
2018-06-05T19:54:33.109Z,22.42
2018-06-05T19:59:25.986Z,22.27
2018-06-05T20:04:18.905Z,22.16
2018-06-05T20:09:11.742Z,22.03
2018-06-05T20:14:04.665Z,21.95
2018-06-05T20:18:57.580Z,21.87
2018-06-05T20:23:50.611Z,21.81
2018-06-05T20:28:43.521Z,21.75
2018-06-05T20:33:36.364Z,21.65
2018-06-05T20:38:29.205Z,21.53
2018-06-05T20:43:22.081Z,21.47
2018-06-05T20:48:15.090Z,21.39
2018-06-05T20:53:08.044Z,21.34
2018-06-05T20:58:00.957Z,21.31
2018-06-05T21:02:54.038Z,21.23
2018-06-05T21:07:46.871Z,21.17
2018-06-05T21:12:39.688Z,21.08
2018-06-05T21:17:32.534Z,21.02
2018-06-05T21:22:25.376Z,20.92
2018-06-05T21:27:18.219Z,20.73
2018-06-05T21:32:11.090Z,20.61
2018-06-05T21:37:04.302Z,20.50
2018-06-05T21:41:57.163Z,20.36
2018-06-05T21:46:50.327Z,20.28
2018-06-05T21:51:43.226Z,20.20
2018-06-05T21:56:36.165Z,20.15
2018-06-05T22:01:29.010Z,20.06
2018-06-05T22:06:21.862Z,19.97
2018-06-05T22:11:16.803Z,19.86
2018-06-05T22:16:09.786Z,19.73
2018-06-05T22:21:02.688Z,19.63
2018-06-05T22:25:57.870Z,19.51
2018-06-05T22:30:50.800Z,19.38
2018-06-05T22:35:43.713Z,19.28
2018-06-05T22:40:36.548Z,19.15
2018-06-05T22:45:29.432Z,19.03
2018-06-05T22:50:22.495Z,18.95
2018-06-05T22:55:15.321Z,18.88
2018-06-05T23:00:08.371Z,18.77
2018-06-05T23:05:01.317Z,18.73
2018-06-05T23:09:54.213Z,18.65
2018-06-05T23:14:47.113Z,18.56
2018-06-05T23:19:40.157Z,18.48
2018-06-05T23:24:33.027Z,18.37
2018-06-05T23:29:25.912Z,18.28
2018-06-05T23:34:18.880Z,18.21
2018-06-05T23:39:11.851Z,18.12
2018-06-05T23:44:04.763Z,18.01
2018-06-05T23:48:57.731Z,17.95
2018-06-05T23:53:50.702Z,17.86
2018-06-05T23:58:43.551Z,17.80
